• Join FlightAware (Why Join?)
  • Login
  • US Flag 
02:50PM EDT


 

Airport Tracker/Info


-or-


 

Live Flight TrackerFlight Track Log ✈ CSN6815 ✈ 17-Nov-2013 ✈ ZWWW / URC - ZWTN / HTN

Flight Track Log - Related Links

Times and Time Zones

All times are in EST time to prevent confusion due to time zone crossing. See the CSN6815 flight status page for this flight to view local times or setup timezone preferences in your user account.

Time Position Orientation Groundspeed Altitude Reporting Facility
EST Latitude Longitude Course Direction KTS MPH feet Rate Location/Type
10:26PM 43.8114 87.3521 223° Southwest  Level Estimated
10:27PM 43.7155 87.2303 223° Southwest  Level Estimated
10:28PM 43.6194 87.1089 222° Southwest  Level Estimated
10:29PM 43.5233 86.9879 222° Southwest  Level Estimated
10:30PM 43.4270 86.8672 222° Southwest  Level Estimated
10:31PM 43.3306 86.7470 222° Southwest  Level Estimated
10:32PM 43.2341 86.6271 222° Southwest  Level Estimated
10:33PM 43.1375 86.5076 222° Southwest  Level Estimated
10:34PM 43.0407 86.3885 222° Southwest  Level Estimated
10:35PM 42.9438 86.2698 222° Southwest  Level Estimated
10:36PM 42.8468 86.1514 222° Southwest  Level Estimated
10:37PM 42.7496 86.0334 222° Southwest  Level Estimated
10:38PM 42.6524 85.9158 222° Southwest  Level Estimated
10:39PM 42.5550 85.7986 222° Southwest  Level Estimated
10:40PM 42.4575 85.6817 222° Southwest  Level Estimated
10:41PM 42.3599 85.5652 221° Southwest  Level Estimated
10:42PM 42.2621 85.4490 221° Southwest  Level Estimated
10:43PM 42.1643 85.3332 221° Southwest  Level Estimated
10:44PM 42.0663 85.2178 221° Southwest  Level Estimated
10:45PM 41.9682 85.1027 221° Southwest  Level Estimated
10:46PM 41.8700 84.9879 221° Southwest  Level Estimated
10:47PM 41.7717 84.8736 221° Southwest  Level Estimated
10:48PM 41.6733 84.7595 221° Southwest  Level Estimated
10:49PM 41.5748 84.6459 221° Southwest  Level Estimated
10:50PM 41.4761 84.5325 221° Southwest  Level Estimated
10:51PM 41.3774 84.4195 221° Southwest  Level Estimated
10:52PM 41.2785 84.3069 221° Southwest  Level Estimated
10:53PM 41.1795 84.1946 221° Southwest  Level Estimated
10:54PM 41.0804 84.0826 220° Southwest  Level Estimated
10:55PM 40.9812 83.9710 220° Southwest  Level Estimated
10:56PM 40.8819 83.8597 220° Southwest  Level Estimated
10:57PM 40.7825 83.7487 220° Southwest  Level Estimated
10:58PM 40.6830 83.6381 220° Southwest  Level Estimated
10:59PM 40.5834 83.5278 220° Southwest  Level Estimated
11:00PM 40.4836 83.4178 220° Southwest  Level Estimated
11:01PM 40.3838 83.3082 220° Southwest  Level Estimated
11:02PM 40.2839 83.1989 220° Southwest  Level Estimated
11:03PM 40.1838 83.0899 220° Southwest  Level Estimated
11:04PM 40.0837 82.9812 220° Southwest  Level Estimated
11:05PM 39.9835 82.8728 220° Southwest  Level Estimated
11:06PM 39.8831 82.7648 220° Southwest  Level Estimated
11:07PM 39.7827 82.6571 220° Southwest  Level Estimated
11:08PM 39.6821 82.5497 219° Southwest  Level Estimated
11:09PM 39.5815 82.4426 219° Southwest  Level Estimated
11:10PM 39.4808 82.3358 219° Southwest  Level Estimated
11:11PM 39.3799 82.2293 219° Southwest  Level Estimated
11:12PM 39.2790 82.1231 219° Southwest  Level Estimated
11:13PM 39.1780 82.0173 219° Southwest  Level Estimated
11:14PM 39.0769 81.9117 219° Southwest  Level Estimated
11:15PM 38.9756 81.8064 219° Southwest  Level Estimated
11:16PM 38.8743 81.7015 219° Southwest  Level Estimated
11:17PM 38.7729 81.5968 219° Southwest  Level Estimated
11:18PM 38.6714 81.4924 219° Southwest  Level Estimated
11:19PM 38.5698 81.3884 219° Southwest  Level Estimated
11:20PM 38.4682 81.2846 219° Southwest  Level Estimated
11:21PM 38.3664 81.1811 219° Southwest  Level Estimated
11:22PM 38.2645 81.0779 219° Southwest  Level Estimated
11:23PM 38.1626 80.9751 218° Southwest  Level Estimated
11:24PM 38.0605 80.8724 218° Southwest  Level Estimated
11:25PM 37.9584 80.7701 218° Southwest  Level Estimated
11:26PM 37.8562 80.6681 218° Southwest  Level Estimated
11:27PM 37.7539 80.5663 218° Southwest  Level Estimated
11:28PM 37.6515 80.4648 218° Southwest  Level Estimated
11:29PM 37.5490 80.3636 218° Southwest  Level Estimated
11:30PM 37.4464 80.2627 218° Southwest  Level Estimated
11:31PM 37.3438 80.1621 218° Southwest  Level Estimated
11:32PM 37.2410 80.0617 218° Southwest  Level Estimated
11:33PM 37.1382 79.9616 218° Southwest  Level Estimated
11:34PM 37.0385 79.8649 218° Southwest  Level Estimated
11:35PM 37.0385 79.8649 50° Northeast  Level Estimated
11:36PM 37.0385 79.8649 50° Northeast  Level Estimated
11:37PM 37.0385 79.8649 50° Northeast  Level Estimated
11:38PM 37.0385 79.8649 50° Northeast  Level Estimated
11:39PM 37.0385 79.8649 50° Northeast  Level Estimated
11:40PM 37.0385 79.8649 50° Northeast  Level Estimated
11:41PM 37.0385 79.8649 50° Northeast  Level Estimated
11:42PM 37.0385 79.8649 50° Northeast  Level Estimated
11:43PM 37.0385 79.8649 50° Northeast  Level Estimated
11:44PM 37.0385 79.8649 50° Northeast  Level Estimated
11:45PM 37.0385 79.8649 50° Northeast  Level Estimated
11:46PM 37.0385 79.8649 50° Northeast  Level Estimated
11:47PM 37.0385 79.8649 50° Northeast  Level Estimated
11:48PM 37.0385 79.8649 50° Northeast  Level Estimated
11:49PM 37.0385 79.8649 50° Northeast  Level Estimated
11:50PM 37.0385 79.8649 50° Northeast  Level Estimated